createdAt,value
2016-02-28T00:00:49.630Z,16.99
2016-02-28T00:01:49.632Z,16.96
2016-02-28T00:02:49.682Z,17.01
2016-02-28T00:03:49.747Z,16.94
2016-02-28T00:04:49.796Z,16.99
2016-02-28T00:05:49.830Z,16.94
2016-02-28T00:06:49.880Z,16.97
2016-02-28T00:07:49.960Z,16.97
2016-02-28T00:08:49.995Z,17.04
2016-02-28T00:09:50.044Z,16.97
2016-02-28T00:10:50.093Z,16.97
2016-02-28T00:11:50.144Z,16.99
2016-02-28T00:12:50.177Z,16.99
2016-02-28T00:13:50.243Z,16.99
2016-02-28T00:14:50.292Z,17.05
2016-02-28T00:15:50.342Z,17.05
2016-02-28T00:16:50.407Z,17.05
2016-02-28T00:17:50.440Z,16.97
2016-02-28T00:18:50.506Z,17.05
2016-02-28T00:19:50.593Z,16.96
2016-02-28T00:20:50.595Z,16.96
2016-02-28T00:21:50.660Z,17.01
2016-02-28T00:22:50.709Z,16.97
2016-02-28T00:23:50.759Z,17.08
2016-02-28T00:24:50.794Z,17.02
2016-02-28T00:25:50.859Z,17.05
2016-02-28T00:26:50.909Z,16.99
2016-02-28T00:27:50.989Z,16.96
2016-02-28T00:28:51.008Z,16.97
2016-02-28T00:29:51.056Z,17.01
2016-02-28T00:30:51.122Z,17.01
2016-02-28T00:31:51.187Z,16.99
2016-02-28T00:32:51.222Z,17.04
2016-02-28T00:33:51.256Z,16.97
2016-02-28T00:34:51.305Z,16.97
2016-02-28T00:35:51.355Z,17.09
2016-02-28T00:36:51.420Z,16.96
2016-02-28T00:37:51.453Z,16.87
2016-02-28T00:38:51.503Z,17.04
2016-02-28T00:39:51.569Z,17.01
2016-02-28T00:40:51.618Z,16.94
2016-02-28T00:41:51.699Z,16.84
2016-02-28T00:42:51.716Z,16.84
2016-02-28T00:43:51.751Z,16.97
2016-02-28T00:44:51.816Z,17.01
2016-02-28T00:45:51.866Z,17.01
2016-02-28T00:46:51.916Z,16.84
2016-02-28T00:47:51.996Z,16.96
2016-02-28T00:48:52.045Z,16.89
2016-02-28T00:49:52.064Z,16.93
2016-02-28T00:50:52.129Z,16.96
2016-02-28T00:51:52.179Z,16.94
2016-02-28T00:52:52.244Z,16.89
2016-02-28T00:53:52.262Z,16.94
2016-02-28T00:54:52.312Z,16.9
2016-02-28T00:55:52.392Z,16.89
2016-02-28T00:56:52.426Z,16.93
2016-02-28T00:57:52.476Z,16.87
2016-02-28T00:58:52.526Z,16.89
2016-02-28T00:59:52.622Z,16.84
2016-02-28T01:00:52.625Z,16.89
2016-02-28T01:01:52.690Z,16.94
2016-02-28T01:02:52.740Z,16.93
2016-02-28T01:03:52.773Z,16.89
2016-02-28T01:04:52.823Z,16.79
2016-02-28T01:05:52.873Z,16.86
2016-02-28T01:06:52.922Z,16.87
2016-02-28T01:07:53.003Z,16.81
2016-02-28T01:08:53.021Z,16.87
2016-02-28T01:09:53.086Z,16.79
2016-02-28T01:10:53.152Z,16.9
2016-02-28T01:11:53.202Z,16.9
2016-02-28T01:12:53.236Z,16.86
2016-02-28T01:13:53.285Z,16.86
2016-02-28T01:14:53.335Z,16.86
2016-02-28T01:15:53.384Z,16.83
2016-02-28T01:16:53.433Z,16.89
2016-02-28T01:17:53.483Z,16.84
2016-02-28T01:18:53.533Z,16.81
2016-02-28T01:19:53.598Z,16.91
2016-02-28T01:20:53.632Z,16.91
2016-02-28T01:21:53.681Z,16.9
2016-02-28T01:22:52.996Z,16.86
2016-02-28T01:23:53.796Z,16.9
2016-02-28T01:24:53.862Z,16.83
2016-02-28T01:25:53.895Z,16.89
2016-02-28T01:26:53.929Z,16.86
2016-02-28T01:27:53.994Z,16.86
2016-02-28T01:28:54.045Z,16.86
2016-02-28T01:29:54.093Z,16.9
2016-02-28T01:30:54.159Z,16.86
2016-02-28T01:31:54.224Z,16.79
2016-02-28T01:32:54.258Z,16.9
2016-02-28T01:33:54.323Z,16.84
2016-02-28T01:34:54.356Z,16.83
2016-02-28T01:35:54.406Z,16.9
2016-02-28T01:36:54.472Z,16.9
2016-02-28T01:37:54.506Z,16.79
2016-02-28T01:38:54.586Z,16.89
2016-02-28T01:39:54.605Z,16.83
2016-02-28T01:40:54.670Z,16.86
2016-02-28T01:41:54.704Z,16.78
2016-02-28T01:42:54.769Z,16.79
2016-02-28T01:43:54.803Z,16.83
2016-02-28T01:44:54.868Z,16.84
2016-02-28T01:45:54.933Z,16.83
2016-02-28T01:46:54.952Z,16.79
2016-02-28T01:47:55.016Z,16.87
2016-02-28T01:48:55.066Z,16.81
2016-02-28T01:49:55.116Z,16.78
2016-02-28T01:50:55.166Z,16.78
2016-02-28T01:51:55.277Z,16.81
2016-02-28T01:52:55.280Z,16.81
2016-02-28T01:53:55.315Z,16.83
2016-02-28T01:54:55.365Z,16.78
2016-02-28T01:55:55.413Z,16.83
2016-02-28T01:56:55.463Z,16.81
2016-02-28T01:57:55.512Z,16.76
2016-02-28T01:58:55.578Z,16.81
2016-02-28T01:59:55.643Z,16.76
2016-02-28T02:00:55.692Z,16.81
2016-02-28T02:01:55.711Z,16.83
2016-02-28T02:02:55.776Z,16.84
2016-02-28T02:03:55.826Z,16.79
2016-02-28T02:04:55.875Z,16.84
2016-02-28T02:05:55.925Z,16.78
2016-02-28T02:06:56.052Z,16.81
2016-02-28T02:07:56.024Z,16.81
2016-02-28T02:08:56.073Z,16.81
2016-02-28T02:09:56.186Z,16.76
2016-02-28T02:10:56.172Z,16.79
2016-02-28T02:11:56.238Z,16.83
2016-02-28T02:12:56.288Z,16.78
2016-02-28T02:13:56.336Z,16.71
2016-02-28T02:14:56.386Z,16.81
2016-02-28T02:15:56.436Z,16.83
2016-02-28T02:16:56.486Z,16.81
2016-02-28T02:17:56.535Z,16.81
2016-02-28T02:18:56.585Z,16.75
2016-02-28T02:19:56.635Z,16.81
2016-02-28T02:20:56.685Z,16.75
2016-02-28T02:21:56.780Z,16.84
2016-02-28T02:22:56.783Z,16.81
2016-02-28T02:23:56.848Z,16.74
2016-02-28T02:24:56.898Z,16.81
2016-02-28T02:25:56.948Z,16.81
2016-02-28T02:26:56.981Z,16.79
2016-02-28T02:27:57.031Z,16.76
2016-02-28T02:28:57.096Z,16.75
2016-02-28T02:29:57.146Z,16.76
2016-02-28T02:30:57.179Z,16.79
2016-02-28T02:31:57.245Z,16.86
2016-02-28T02:32:57.294Z,16.76
2016-02-28T02:33:57.344Z,16.74
2016-02-28T02:34:57.409Z,16.83
2016-02-28T02:35:57.459Z,16.71
2016-02-28T02:36:57.523Z,16.74
2016-02-28T02:37:57.542Z,16.75
2016-02-28T02:38:57.591Z,16.79
2016-02-28T02:39:57.656Z,16.69
2016-02-28T02:40:57.722Z,16.78
2016-02-28T02:41:57.756Z,16.75
2016-02-28T02:42:57.806Z,16.72
2016-02-28T02:43:57.855Z,16.72
2016-02-28T02:44:57.905Z,16.74
2016-02-28T02:45:57.969Z,16.74
2016-02-28T02:46:58.004Z,16.78
2016-02-28T02:47:58.053Z,16.76
2016-02-28T02:48:58.102Z,16.69
2016-02-28T02:49:58.152Z,16.66
2016-02-28T02:50:58.218Z,16.71
2016-02-28T02:51:58.267Z,16.74
2016-02-28T02:52:58.301Z,16.78
2016-02-28T02:53:58.366Z,16.69
2016-02-28T02:54:58.432Z,16.72
2016-02-28T02:55:58.449Z,16.72
2016-02-28T02:56:58.515Z,16.74
2016-02-28T02:57:58.565Z,16.74
2016-02-28T02:58:58.614Z,16.71
2016-02-28T02:59:58.664Z,16.69
2016-02-28T03:00:58.713Z,16.75
2016-02-28T03:01:58.762Z,16.68
2016-02-28T03:02:58.828Z,16.66
2016-02-28T03:03:58.878Z,16.65
2016-02-28T03:04:58.911Z,16.68
2016-02-28T03:05:58.976Z,16.74
2016-02-28T03:06:59.042Z,16.68
2016-02-28T03:07:59.076Z,16.68
2016-02-28T03:08:59.126Z,16.61
2016-02-28T03:09:59.175Z,16.64
2016-02-28T03:10:59.209Z,16.65
2016-02-28T03:11:59.274Z,16.66
2016-02-28T03:12:59.324Z,16.71
2016-02-28T03:13:59.373Z,16.74
2016-02-28T03:14:59.422Z,16.66
2016-02-28T03:15:59.489Z,16.64
2016-02-28T03:16:59.538Z,16.69
2016-02-28T03:17:59.588Z,16.69
2016-02-28T03:18:59.621Z,16.68
2016-02-28T03:19:59.686Z,16.71
2016-02-28T03:20:59.752Z,16.71
2016-02-28T03:21:59.769Z,16.64
2016-02-28T03:22:59.835Z,16.71
2016-02-28T03:23:59.885Z,16.69
2016-02-28T03:24:59.934Z,16.66
2016-02-28T03:25:59.984Z,16.69
2016-02-28T03:27:00.049Z,16.69
2016-02-28T03:28:00.083Z,16.57
2016-02-28T03:29:00.132Z,16.69
2016-02-28T03:30:00.213Z,16.68
2016-02-28T03:31:00.262Z,16.57
2016-02-28T03:32:00.312Z,16.68
2016-02-28T03:33:00.362Z,16.64
2016-02-28T03:34:00.442Z,16.68
2016-02-28T03:35:00.461Z,16.58
2016-02-28T03:36:00.526Z,16.56
2016-02-28T03:37:00.606Z,16.6
2016-02-28T03:38:00.453Z,16.71
2016-02-28T03:39:00.659Z,16.6
2016-02-28T03:40:00.724Z,16.57
2016-02-28T03:41:00.758Z,16.58
2016-02-28T03:42:00.808Z,16.66
2016-02-28T03:43:00.873Z,16.57
2016-02-28T03:44:00.907Z,16.56
2016-02-28T03:45:01.020Z,16.61
2016-02-28T03:46:01.068Z,16.56
2016-02-28T03:47:01.087Z,16.61
2016-02-28T03:48:01.122Z,16.6
2016-02-28T03:49:01.171Z,16.58
2016-02-28T03:50:01.220Z,16.57
2016-02-28T03:51:01.270Z,16.58
2016-02-28T03:52:01.319Z,16.53
2016-02-28T03:53:01.369Z,16.58
2016-02-28T03:54:01.435Z,16.56
2016-02-28T03:55:01.483Z,16.56
2016-02-28T03:56:01.518Z,16.58
2016-02-28T03:57:01.582Z,16.61
2016-02-28T03:58:01.632Z,16.57
2016-02-28T03:59:01.665Z,16.57
2016-02-28T04:00:01.731Z,16.6
2016-02-28T04:01:01.781Z,16.56
2016-02-28T04:02:01.831Z,16.57
2016-02-28T04:03:01.879Z,16.57
2016-02-28T04:04:01.935Z,16.54
2016-02-28T04:05:01.984Z,16.46
2016-02-28T04:06:02.050Z,16.46
2016-02-28T04:07:02.084Z,16.57
2016-02-28T04:08:02.134Z,16.58
2016-02-28T04:09:02.197Z,16.57
2016-02-28T04:10:02.231Z,16.43
2016-02-28T04:11:02.281Z,16.51
2016-02-28T04:12:02.331Z,16.53
2016-02-28T04:13:02.381Z,16.47
2016-02-28T04:14:02.447Z,16.46
2016-02-28T04:15:02.511Z,16.49
2016-02-28T04:16:02.545Z,16.56
2016-02-28T04:17:02.595Z,16.5
2016-02-28T04:18:02.644Z,16.51
2016-02-28T04:19:02.693Z,16.47
2016-02-28T04:20:02.744Z,16.51
2016-02-28T04:21:02.777Z,16.43
2016-02-28T04:22:02.843Z,16.47
2016-02-28T04:23:02.892Z,16.47
2016-02-28T04:24:02.957Z,16.5
2016-02-28T04:25:02.991Z,16.47
2016-02-28T04:26:03.040Z,16.42
2016-02-28T04:27:03.090Z,16.49
2016-02-28T04:28:03.140Z,16.42
2016-02-28T04:29:03.190Z,16.5
2016-02-28T04:30:03.239Z,16.47
2016-02-28T04:31:03.304Z,16.47
2016-02-28T04:32:03.354Z,16.57
2016-02-28T04:33:03.387Z,16.47
2016-02-28T04:34:03.453Z,16.46
2016-02-28T04:35:03.487Z,16.46
2016-02-28T04:36:03.551Z,16.43
2016-02-28T04:37:03.617Z,16.43
2016-02-28T04:38:03.651Z,16.49
2016-02-28T04:39:03.700Z,16.43
2016-02-28T04:40:03.766Z,16.42
2016-02-28T04:41:03.815Z,16.43
2016-02-28T04:42:03.850Z,16.46
2016-02-28T04:43:03.899Z,16.43
2016-02-28T04:44:03.948Z,16.46
2016-02-28T04:45:03.998Z,16.49
2016-02-28T04:46:04.063Z,16.49
2016-02-28T04:47:04.097Z,16.47
2016-02-28T04:48:04.209Z,16.38
2016-02-28T04:49:04.211Z,16.39
2016-02-28T04:50:04.261Z,16.41
2016-02-28T04:51:04.327Z,16.46
2016-02-28T04:52:04.360Z,16.46
2016-02-28T04:53:04.410Z,16.43
2016-02-28T04:54:04.460Z,16.5
2016-02-28T04:55:04.525Z,16.42
2016-02-28T04:56:04.574Z,16.49
2016-02-28T04:57:04.608Z,16.46
2016-02-28T04:58:04.658Z,16.42
2016-02-28T04:59:04.738Z,16.42
2016-02-28T05:00:04.757Z,16.39
2016-02-28T05:01:04.806Z,16.42
2016-02-28T05:02:04.872Z,16.47
2016-02-28T05:03:04.921Z,16.41
2016-02-28T05:04:04.971Z,16.42
2016-02-28T05:05:05.005Z,16.47
2016-02-28T05:06:05.101Z,16.41
2016-02-28T05:07:05.120Z,16.39
2016-02-28T05:08:05.170Z,16.46
2016-02-28T05:09:05.219Z,16.43
2016-02-28T05:10:05.253Z,16.36
2016-02-28T05:11:05.318Z,16.42
2016-02-28T05:12:05.399Z,16.51
2016-02-28T05:13:05.433Z,16.41
2016-02-28T05:14:05.466Z,16.36
2016-02-28T05:15:05.517Z,16.42
2016-02-28T05:16:05.597Z,16.43
2016-02-28T05:17:05.616Z,16.47
2016-02-28T05:18:05.664Z,16.39
2016-02-28T05:19:05.730Z,16.38
2016-02-28T05:20:05.764Z,16.38
2016-02-28T05:21:05.814Z,16.29
2016-02-28T05:22:05.894Z,16.41
2016-02-28T05:23:05.928Z,16.38
2016-02-28T05:24:05.978Z,16.41
2016-02-28T05:25:06.027Z,16.42
2016-02-28T05:26:06.077Z,16.35
2016-02-28T05:27:06.126Z,16.35
2016-02-28T05:28:06.177Z,16.38
2016-02-28T05:29:06.241Z,16.39
2016-02-28T05:30:06.276Z,16.31
2016-02-28T05:31:06.324Z,16.36
2016-02-28T05:32:06.374Z,16.33
2016-02-28T05:33:06.424Z,16.31
2016-02-28T05:34:06.473Z,16.33
2016-02-28T05:35:06.523Z,16.26
2016-02-28T05:36:06.588Z,16.29
2016-02-28T05:37:06.638Z,16.29
2016-02-28T05:38:06.687Z,16.35
2016-02-28T05:39:06.721Z,16.32
2016-02-28T05:40:06.771Z,16.35
2016-02-28T05:41:06.837Z,16.38
2016-02-28T05:42:06.886Z,16.32
2016-02-28T05:43:06.936Z,16.26
2016-02-28T05:44:06.984Z,16.28
2016-02-28T05:45:07.034Z,16.39
2016-02-28T05:46:07.084Z,16.33
2016-02-28T05:47:07.133Z,16.32
2016-02-28T05:48:07.183Z,16.29
2016-02-28T05:49:07.233Z,16.31
2016-02-28T05:50:07.298Z,16.31
2016-02-28T05:51:07.316Z,16.24
2016-02-28T05:52:07.381Z,16.32
2016-02-28T05:53:07.431Z,16.33
2016-02-28T05:54:07.480Z,16.33
2016-02-28T05:55:07.530Z,16.21
2016-02-28T05:56:07.596Z,16.29
2016-02-28T05:57:07.644Z,16.32
2016-02-28T05:58:07.710Z,16.36
2016-02-28T05:59:07.729Z,16.33
2016-02-28T06:00:07.810Z,16.26
2016-02-28T06:01:07.827Z,16.26
2016-02-28T06:02:07.893Z,16.32
2016-02-28T06:03:07.973Z,16.32
2016-02-28T06:04:07.992Z,16.28
2016-02-28T06:05:08.057Z,16.31
2016-02-28T06:06:08.090Z,16.29
2016-02-28T06:07:08.156Z,16.29
2016-02-28T06:08:08.174Z,16.28
2016-02-28T06:09:08.256Z,16.29
2016-02-28T06:10:08.289Z,16.26
2016-02-28T06:11:08.354Z,16.26
2016-02-28T06:12:08.389Z,16.24
2016-02-28T06:13:08.453Z,16.31
2016-02-28T06:14:08.487Z,16.2
2016-02-28T06:15:08.552Z,16.26
2016-02-28T06:16:08.587Z,16.29
2016-02-28T06:17:08.636Z,16.21
2016-02-28T06:18:08.701Z,16.31
2016-02-28T06:19:08.751Z,16.29
2016-02-28T06:20:08.785Z,16.28
2016-02-28T06:21:08.897Z,16.26
2016-02-28T06:22:08.899Z,16.24
2016-02-28T06:23:08.964Z,16.24
2016-02-28T06:24:08.999Z,16.26
2016-02-28T06:25:09.063Z,16.29
2016-02-28T06:26:09.097Z,16.26
2016-02-28T06:27:09.147Z,16.23
2016-02-28T06:28:09.197Z,16.29
2016-02-28T06:29:09.246Z,16.29
2016-02-28T06:30:09.312Z,16.26
2016-02-28T06:31:09.346Z,16.16
2016-02-28T06:32:09.411Z,16.28
2016-02-28T06:33:09.445Z,16.17
2016-02-28T06:34:09.494Z,16.28
2016-02-28T06:35:09.560Z,16.26
2016-02-28T06:36:09.610Z,16.24
2016-02-28T06:37:09.643Z,16.16
2016-02-28T06:38:09.724Z,16.2
2016-02-28T06:39:09.757Z,16.2
2016-02-28T06:40:09.807Z,16.23
2016-02-28T06:41:09.857Z,16.16
2016-02-28T06:42:09.906Z,16.21
2016-02-28T06:43:09.956Z,16.13
2016-02-28T06:44:10.006Z,16.13
2016-02-28T06:45:10.071Z,16.1
2016-02-28T06:46:10.167Z,16.2
2016-02-28T06:47:10.154Z,16.23
2016-02-28T06:48:10.203Z,16.13
2016-02-28T06:49:10.253Z,16.15
2016-02-28T06:50:10.303Z,16.23
2016-02-28T06:51:10.368Z,16.16
2016-02-28T06:52:10.403Z,16.23
2016-02-28T06:53:10.467Z,16.16
2016-02-28T06:54:10.502Z,16.24
2016-02-28T06:55:10.566Z,16.16
2016-02-28T06:56:10.616Z,16.16
2016-02-28T06:57:10.681Z,16.16
2016-02-28T06:58:10.700Z,16.16
2016-02-28T06:59:10.780Z,16.2
2016-02-28T07:00:10.814Z,16.23
2016-02-28T07:01:10.896Z,16.16
2016-02-28T07:02:10.914Z,16.15
2016-02-28T07:03:10.807Z,16.13
2016-02-28T07:04:11.044Z,16.16
2016-02-28T07:05:11.063Z,16.12
2016-02-28T07:06:11.112Z,16.17
2016-02-28T07:07:11.162Z,16.15
2016-02-28T07:08:11.210Z,16.13
2016-02-28T07:09:11.260Z,16.16
2016-02-28T07:10:11.310Z,16.2
2016-02-28T07:11:11.375Z,16.16
2016-02-28T07:12:11.409Z,16.17
2016-02-28T07:13:11.459Z,16.17
2016-02-28T07:14:11.556Z,16.15
2016-02-28T07:15:11.558Z,16.12
2016-02-28T07:16:11.638Z,16.12
2016-02-28T07:17:11.672Z,16.17
2016-02-28T07:18:11.722Z,16.1
2016-02-28T07:19:11.771Z,16.15
2016-02-28T07:20:11.821Z,16.15
2016-02-28T07:21:11.870Z,16.15
2016-02-28T07:22:11.920Z,16.13
2016-02-28T07:23:11.970Z,16.17
2016-02-28T07:24:12.019Z,16.13
2016-02-28T07:25:11.928Z,16.12
2016-02-28T07:26:12.119Z,16.12
2016-02-28T07:27:12.169Z,16.15
2016-02-28T07:28:12.233Z,16.12
2016-02-28T07:29:12.361Z,16.12
2016-02-28T07:30:12.316Z,16.13
2016-02-28T07:31:12.429Z,16.12
2016-02-28T07:32:12.416Z,16.09
2016-02-28T07:33:12.465Z,16.12
2016-02-28T07:34:12.530Z,16.08
2016-02-28T07:35:12.565Z,16.09
2016-02-28T07:36:12.630Z,16.12
2016-02-28T07:37:12.679Z,16.12
2016-02-28T07:38:12.729Z,16.09
2016-02-28T07:39:12.779Z,16.12
2016-02-28T07:40:12.828Z,16.1
2016-02-28T07:41:12.862Z,16.12
2016-02-28T07:42:12.942Z,16.12
2016-02-28T07:43:12.977Z,16.1
2016-02-28T07:44:13.027Z,16.13
2016-02-28T07:45:13.076Z,16.08
2016-02-28T07:46:13.141Z,16.16
2016-02-28T07:47:13.176Z,16.1
2016-02-28T07:48:13.231Z,16.15
2016-02-28T07:49:13.299Z,16.24
2016-02-28T07:50:13.322Z,16.26
2016-02-28T07:51:13.344Z,16.29
2016-02-28T07:52:13.365Z,16.42
2016-02-28T07:53:13.409Z,16.47
2016-02-28T07:54:13.470Z,16.58
2016-02-28T07:55:13.501Z,16.71
2016-02-28T07:56:13.561Z,17.05
2016-02-28T07:57:13.606Z,17.24
2016-02-28T07:58:13.685Z,17.51
2016-02-28T07:59:13.702Z,17.74
2016-02-28T08:00:13.735Z,17.79
2016-02-28T08:01:13.783Z,17.89
2016-02-28T08:02:13.862Z,18.03
2016-02-28T08:03:13.895Z,18.11
2016-02-28T08:04:13.929Z,18.1
2016-02-28T08:05:13.993Z,18.13
2016-02-28T08:06:14.042Z,18.15
2016-02-28T08:07:14.091Z,18.19
2016-02-28T08:08:14.157Z,18.05
2016-02-28T08:09:14.206Z,18.1
2016-02-28T08:10:14.255Z,18.08
2016-02-28T08:11:14.288Z,18.08
2016-02-28T08:12:14.354Z,18.13
2016-02-28T08:13:14.387Z,18.05
2016-02-28T08:14:14.453Z,18.03
2016-02-28T08:15:14.487Z,18
2016-02-28T08:16:14.567Z,18.03
2016-02-28T08:17:14.601Z,17.92
2016-02-28T08:18:14.650Z,17.85
2016-02-28T08:19:13.966Z,17.83
2016-02-28T08:20:14.765Z,17.79
2016-02-28T08:21:14.784Z,17.8
2016-02-28T08:22:14.865Z,17.78
2016-02-28T08:23:14.914Z,17.6
2016-02-28T08:24:14.948Z,17.68
2016-02-28T08:25:14.997Z,17.57
2016-02-28T08:26:15.047Z,17.48
2016-02-28T08:27:15.112Z,17.46
2016-02-28T08:28:15.163Z,17.49
2016-02-28T08:29:15.211Z,17.48
2016-02-28T08:30:15.261Z,17.44
2016-02-28T08:31:15.326Z,17.45
2016-02-28T08:32:15.344Z,17.42
2016-02-28T08:33:15.487Z,17.46
2016-02-28T08:34:15.460Z,17.42
2016-02-28T08:35:15.525Z,17.45
2016-02-28T08:36:15.574Z,17.33
2016-02-28T08:37:15.608Z,17.34
2016-02-28T08:38:15.673Z,17.39
2016-02-28T08:39:15.707Z,17.36
2016-02-28T08:40:15.756Z,17.33
2016-02-28T08:41:15.822Z,17.24
2016-02-28T08:42:15.871Z,17.15
2016-02-28T08:43:15.921Z,17.12
2016-02-28T08:44:15.970Z,17.15
2016-02-28T08:45:16.020Z,17.15
2016-02-28T08:46:16.069Z,17.12
2016-02-28T08:47:16.120Z,16.97
2016-02-28T08:48:16.170Z,16.97
2016-02-28T08:49:16.234Z,16.94
2016-02-28T08:50:16.268Z,16.89
2016-02-28T08:51:16.333Z,16.79
2016-02-28T08:52:16.367Z,16.86
2016-02-28T08:53:16.416Z,16.72
2016-02-28T08:54:16.466Z,16.58
2016-02-28T08:55:16.516Z,16.28
2016-02-28T08:56:16.566Z,15.94
2016-02-28T08:57:16.631Z,15.65
2016-02-28T08:58:16.680Z,15.46
2016-02-28T08:59:16.730Z,15.1
2016-02-28T09:00:16.779Z,14.94
2016-02-28T09:01:16.813Z,14.66
2016-02-28T09:02:16.864Z,14.53
2016-02-28T09:03:16.930Z,14.43
2016-02-28T09:04:16.979Z,14.25
2016-02-28T09:05:17.034Z,14.12
2016-02-28T09:06:17.084Z,14.11
2016-02-28T09:07:17.117Z,13.86
2016-02-28T09:08:17.167Z,13.74
2016-02-28T09:09:17.232Z,13.59
2016-02-28T09:10:17.281Z,13.5
2016-02-28T09:11:17.316Z,13.53
2016-02-28T09:12:17.366Z,13.49
2016-02-28T09:13:17.414Z,13.39
2016-02-28T09:14:17.480Z,13.39
2016-02-28T09:15:17.514Z,13.38
2016-02-28T09:16:17.563Z,13.3
2016-02-28T09:17:17.613Z,13.23
2016-02-28T09:18:17.663Z,13.19
2016-02-28T09:19:17.713Z,13.3
2016-02-28T09:20:17.762Z,13.33
2016-02-28T09:21:17.827Z,13.37
2016-02-28T09:22:17.877Z,13.42
2016-02-28T09:23:17.910Z,13.37
2016-02-28T09:24:17.960Z,13.31
2016-02-28T09:25:18.009Z,13.38
2016-02-28T09:26:18.075Z,13.42
2016-02-28T09:27:18.109Z,13.38
2016-02-28T09:28:18.159Z,13.41
2016-02-28T09:29:18.208Z,13.44
2016-02-28T09:30:18.273Z,13.47
2016-02-28T09:31:18.307Z,13.42
2016-02-28T09:32:18.340Z,13.37
2016-02-28T09:33:18.407Z,13.42
2016-02-28T09:34:18.456Z,13.42
2016-02-28T09:35:18.489Z,13.35
2016-02-28T09:36:18.643Z,13.42
2016-02-28T09:37:18.305Z,13.39
2016-02-28T09:38:18.591Z,13.47
2016-02-28T09:39:18.630Z,13.38
2016-02-28T09:40:18.726Z,13.38
2016-02-28T09:41:18.776Z,13.31
2016-02-28T09:42:18.825Z,13.38
2016-02-28T09:43:18.859Z,13.44
2016-02-28T09:44:18.909Z,13.31
2016-02-28T09:45:18.974Z,13.3
2016-02-28T09:46:19.007Z,13.37
2016-02-28T09:47:19.073Z,13.31
2016-02-28T09:48:19.132Z,13.42
2016-02-28T09:49:19.167Z,13.54
2016-02-28T09:50:19.216Z,13.65
2016-02-28T09:51:19.297Z,13.78
2016-02-28T09:52:19.315Z,13.86
2016-02-28T09:53:19.239Z,13.99
2016-02-28T09:54:19.414Z,14.11
2016-02-28T09:55:19.463Z,14.26
2016-02-28T09:56:19.513Z,14.43
2016-02-28T09:57:19.547Z,14.54
2016-02-28T09:58:19.596Z,14.55
2016-02-28T09:59:19.866Z,14.79
2016-02-28T10:00:19.696Z,14.82
2016-02-28T10:01:19.746Z,14.97
2016-02-28T10:02:19.816Z,15.1
2016-02-28T10:03:19.850Z,15.11
2016-02-28T10:04:19.150Z,15.28
2016-02-28T10:05:19.949Z,15.42
2016-02-28T10:06:19.988Z,15.44
2016-02-28T10:07:20.039Z,15.47
2016-02-28T10:08:20.151Z,15.47
2016-02-28T10:09:20.123Z,15.59
2016-02-28T10:10:20.189Z,15.7
2016-02-28T10:11:20.238Z,15.72
2016-02-28T10:12:20.287Z,15.82
2016-02-28T10:13:20.337Z,15.95
2016-02-28T10:14:20.387Z,15.92
2016-02-28T10:15:20.483Z,16.02
2016-02-28T10:16:20.611Z,16.1
2016-02-28T10:17:20.519Z,16.13
2016-02-28T10:18:20.569Z,16.35
2016-02-28T10:19:20.650Z,16.32
2016-02-28T10:20:20.731Z,16.32
2016-02-28T10:21:20.734Z,16.39
2016-02-28T10:22:20.783Z,16.39
2016-02-28T10:23:20.817Z,16.43
2016-02-28T10:24:20.866Z,16.5
2016-02-28T10:25:20.932Z,16.42
2016-02-28T10:26:20.965Z,16.58
2016-02-28T10:27:21.030Z,16.65
2016-02-28T10:28:21.346Z,16.64
2016-02-28T10:29:21.115Z,16.65
2016-02-28T10:30:21.164Z,16.69
2016-02-28T10:31:21.307Z,16.74
2016-02-28T10:32:21.263Z,16.81
2016-02-28T10:33:21.344Z,16.84
2016-02-28T10:34:21.378Z,16.86
2016-02-28T10:35:21.427Z,16.83
2016-02-28T10:36:21.461Z,16.93
2016-02-28T10:37:21.526Z,16.96
2016-02-28T10:38:21.576Z,16.97
2016-02-28T10:39:21.626Z,16.96
2016-02-28T10:40:21.691Z,17.14
2016-02-28T10:41:21.788Z,17.11
2016-02-28T10:42:21.868Z,17.08
2016-02-28T10:43:21.856Z,17.2
2016-02-28T10:44:21.951Z,17.19
2016-02-28T10:45:21.923Z,17.14
2016-02-28T10:46:22.050Z,17.2
2016-02-28T10:47:22.038Z,17.26
2016-02-28T10:48:22.072Z,17.29
2016-02-28T10:49:22.137Z,17.38
2016-02-28T10:50:22.187Z,17.38
2016-02-28T10:51:22.236Z,17.38
2016-02-28T10:52:22.270Z,17.48
2016-02-28T10:53:22.382Z,17.45
2016-02-28T10:54:22.385Z,17.39
2016-02-28T10:55:22.434Z,17.48
2016-02-28T10:56:22.484Z,17.31
2016-02-28T10:57:22.533Z,17.45
2016-02-28T10:58:22.583Z,17.48
2016-02-28T10:59:22.632Z,17.41
2016-02-28T11:00:22.682Z,17.42
2016-02-28T11:01:22.732Z,17.45
2016-02-28T11:02:22.782Z,17.42
2016-02-28T11:03:22.832Z,17.44
2016-02-28T11:04:22.880Z,17.41
2016-02-28T11:05:22.930Z,17.48
2016-02-28T11:06:22.995Z,17.54
2016-02-28T11:07:23.045Z,17.51
2016-02-28T11:08:23.095Z,17.46
2016-02-28T11:09:22.973Z,17.49
2016-02-28T11:10:23.193Z,17.59
2016-02-28T11:11:23.087Z,17.63
2016-02-28T11:12:23.277Z,17.65
2016-02-28T11:13:23.342Z,17.57
2016-02-28T11:14:23.392Z,17.64
2016-02-28T11:15:23.441Z,17.74
2016-02-28T11:16:23.475Z,17.74
2016-02-28T11:17:23.556Z,17.76
2016-02-28T11:18:23.590Z,17.83
2016-02-28T11:19:23.670Z,17.76
2016-02-28T11:20:23.783Z,17.8
2016-02-28T11:21:23.738Z,17.79
2016-02-28T11:22:23.789Z,17.78
2016-02-28T11:23:23.854Z,17.86
2016-02-28T11:24:23.919Z,17.9
2016-02-28T11:25:23.953Z,17.89
2016-02-28T11:26:24.002Z,17.97
2016-02-28T11:27:26.302Z,17.92
2016-02-28T11:28:25.773Z,17.97
2016-02-28T11:29:25.933Z,17.97
2016-02-28T11:30:26.122Z,18.03
2016-02-28T11:31:25.391Z,18.04
2016-02-28T11:32:26.112Z,18.08
2016-02-28T11:33:25.677Z,18.04
2016-02-28T11:34:25.633Z,18.04
2016-02-28T11:35:26.073Z,18.1
2016-02-28T11:36:26.295Z,18.15
2016-02-28T11:37:26.298Z,18.08
2016-02-28T11:38:25.941Z,18.13
2016-02-28T11:39:25.912Z,18.11
2016-02-28T11:40:26.681Z,18.11
2016-02-28T11:41:25.620Z,18.16
2016-02-28T11:42:25.686Z,18.2
2016-02-28T11:43:26.064Z,18.26
2016-02-28T11:44:26.223Z,18.25
2016-02-28T11:45:25.507Z,18.22
2016-02-28T11:46:26.197Z,18.26
2016-02-28T11:47:25.574Z,18.25
2016-02-28T11:48:25.655Z,18.34
2016-02-28T11:49:25.173Z,18.26
2016-02-28T11:50:25.208Z,18.28
2016-02-28T11:51:25.288Z,18.26
2016-02-28T11:52:25.322Z,18.19
2016-02-28T11:53:25.372Z,18.26
2016-02-28T11:54:25.422Z,18.29
2016-02-28T11:55:25.471Z,18.25
2016-02-28T11:56:25.520Z,18.33
2016-02-28T11:57:25.586Z,18.34
2016-02-28T11:58:25.619Z,18.35
2016-02-28T11:59:25.700Z,18.34
2016-02-28T12:00:25.719Z,18.31
2016-02-28T12:01:25.799Z,18.33
2016-02-28T12:02:25.833Z,18.25
2016-02-28T12:03:25.899Z,18.31
2016-02-28T12:04:25.932Z,18.28
2016-02-28T12:05:25.982Z,18.19
2016-02-28T12:06:26.032Z,18.28
2016-02-28T12:07:26.097Z,18.29
2016-02-28T12:08:26.146Z,18.28
2016-02-28T12:09:26.180Z,18.25
2016-02-28T12:10:26.245Z,18.23
2016-02-28T12:11:26.296Z,18.22
2016-02-28T12:12:26.360Z,18.28
2016-02-28T12:13:26.395Z,18.28
2016-02-28T12:14:26.459Z,18.35
2016-02-28T12:15:26.493Z,18.33
2016-02-28T12:16:26.574Z,18.4
2016-02-28T12:17:26.592Z,18.31
2016-02-28T12:18:26.689Z,18.2
2016-02-28T12:19:26.707Z,18.35
2016-02-28T12:20:26.772Z,18.38
2016-02-28T12:21:26.806Z,18.28
2016-02-28T12:22:26.997Z,18.31
2016-02-28T12:23:26.922Z,18.41
2016-02-28T12:24:26.956Z,18.33
2016-02-28T12:25:27.005Z,18.43
2016-02-28T12:26:27.070Z,18.4
2016-02-28T12:27:27.119Z,18.49
2016-02-28T12:28:27.169Z,18.49
2016-02-28T12:29:27.219Z,18.52
2016-02-28T12:30:27.284Z,18.53
2016-02-28T12:31:27.333Z,18.56
2016-02-28T12:32:27.383Z,18.56
2016-02-28T12:33:27.416Z,18.53
2016-02-28T12:34:27.466Z,18.59
2016-02-28T12:35:27.547Z,18.63
2016-02-28T12:36:27.613Z,18.59
2016-02-28T12:37:27.677Z,18.65
2016-02-28T12:38:27.680Z,18.6
2016-02-28T12:39:27.746Z,18.68
2016-02-28T12:40:27.623Z,18.65
2016-02-28T12:41:27.845Z,18.62
2016-02-28T12:42:27.894Z,18.62
2016-02-28T12:43:27.943Z,18.59
2016-02-28T12:44:28.040Z,18.6
2016-02-28T12:45:28.042Z,18.59
2016-02-28T12:46:28.092Z,18.62
2016-02-28T12:47:28.220Z,18.63
2016-02-28T12:48:28.207Z,18.65
2016-02-28T12:49:28.257Z,18.6
2016-02-28T12:50:28.306Z,18.63
2016-02-28T12:51:28.356Z,18.68
2016-02-28T12:52:28.406Z,18.68
2016-02-28T12:53:28.471Z,18.73
2016-02-28T12:54:28.567Z,18.66
2016-02-28T12:55:28.616Z,18.83